Hurst Springs, Texas
Current Conditions -  °F | °C
As of 7:58 PM on Friday 19 Dec 2014 (Local Time) from KACT Reporting Station
Overcast Overcast  
Wind Chill: 46°   Ceiling: 2100
Heat Index: 49°   Visibility: 9mi
Dew Point: 45°   Wind: 7mph
Humidity: 86%   Direction: 330°NNW
Pressure: 30.18"   Gusts: NA
Location:  31.7854°N, 97.5786°W
Report Text: KACT 200158Z 33006KT 9SM OVC021 09/07 A3018 RMK AO2 T00940072
Loading
Personal Weather Stations






























Interactive Weather Map New forecast layout! Learn more

10-Day Weather Forecast

Advertisements
Track Severe Weather on mobile